Terminal Aerodrome Forecast
Issued by NWS Duluth, MN

Home | Current Version | Previous Version | Text Only | Print | Product List | Glossary On
Versions: 1 2 3 4 5 6 7 8 9 10 11 12 13 14 15 16 17 18 19 20
000
FTUS43 KDLH 211730
TAFINL
TAF
KINL 211730Z 2118/2218 10005KT P6SM VCTS FEW110CB
     FM220700 VRB03KT P6SM VCTS BKN090CB
      TEMPO 2209/2212 -SHRA BKN060
     FM221200 VRB03KT P6SM BKN050
     FM221400 15005KT P6SM BKN015
     FM221600 17005KT P6SM BKN030=

USA.gov is the U.S. government's official web portal to all federal, state and local government web resources and services.